Aviation Digital Data Service (ADDS)

Output produced by METARs form (1940 UTC 18 June 2019)
found at http://www.aviationweather.gov/metar/data/
 
SKUC 181900Z 12005KT 9000 -DZ BKN015 26/25 A2991
SKAR 181900Z VRB03KT 9999 SCT023 SCT100 29/21 A2994
SKEJ 181900Z 30003KT 9999 FEW025 35/25 A2975
SKBQ 181900Z 01010KT 330V050 9999 FEW020 34/25 A2975 NOSIG
TAF COR SKBQ 181630Z 1818/1918 02010KT CAVOK 
     PROB30 
     TEMPO 1920/1923 FEW015CB TX34/1817Z TN27/1911Z
       
SKBO 181900Z 15016KT 9999 VCSH SCT017 SCT080 18/10 A3033 NOSIGRMK VCSH/NE/S/N
TAF COR SKBO 181630Z 1818/1918 16010KT 9999 BKN015 
     TEMPO 1818/1820 VCSH 
     BECMG 1820/1822 VRB02KT 
     TEMPO 1821/1902 DZ SCT017TCU 
     BECMG 1909/1911 12007KT TX22/1818Z TN10/1911Z
       
SKBG 181900Z 30010KT 9999 FEW010 SCT240 27/21 A2993
TAF SKBG 181630Z 1818/1918 34004KT 9999 FEW017 
     BECMG 1820/1822 VRB02KT 
     PROB30 
     TEMPO 1821/1902 5000 RADZ SCT017CB 
     BECMG 1909/1911 18007KT TX29/1819Z TN17/1911Z
       
SKCL 181900Z 05004KT 9000 FEW020 BKN090 30/18 A2990 NOSIG RMK HZ
TAF COR SKCL 181630Z 1818/1918 28008KT 9999 SCT020 BKN130 
     PROB30 
     TEMPO 1823/1901 8000 VCSH SCT017TCU 
     BECMG 1901/1902 VRB02KT FEW017 BKN250 
     TEMPO 1910/1913 8000 VCFG TX32/1819Z TN18/1911Z
       
SKLC 181900Z 35012KT 9999 FEW025 34/26 A2974
SKCG 181900Z 36016KT 9999 FEW009 35/25 A2973
TAF COR SKCG 181630Z 1818/1918 32004KT 9999 FEW020 
     BECMG 1820/1822 VRB02KT CAVOK 
     BECMG 1909/1911 36007KT TX34/1819Z TN25/1911Z
       
SKCC 181900Z 11010KT 9999 SCT023 SCT090 33/18 A2988
TAF SKCC 181630Z 1818/1918 15020KT 9999 SCT023 SCT090 
     BECMG 1820/1822 VRB02KT 
     PROB30 
     TEMPO 1821/1902 5000 RADZ SCT016CB 
     BECMG 1909/1911 18007KT TX34/1819Z TN24/1911Z
       
SKIB 181900Z 18007KT 9999 SCT030 BKN100 28/20 A3006
SKIP 181900Z 09009KT 9999 VCSH OVC016 12/09 A3041 RMK VCSH/E
SKLT 181900Z VRB02KT 9999 SCT017 BKN100 30/25 A2989
TAF COR SKLT 181630Z 1818/1918 34003KT 9999 SCT015 BKN100 
     BECMG 1820/1822 VRB02KT 
     TEMPO 1821/1902 5000 RADZ SCT017CB 
     BECMG 1909/1911 18007KT TX32/1818Z TN22/1911Z
       
SKMZ 181900Z 30005KT 9999 FEW010 SCT080 22/17 A3025
SKMD 181900Z 09016KT 9999 FEW040 BKN200 31/13 A3004
SKRG 181900Z 14012KT 9999 FEW020 BKN200 23/13 A3025 NOSIG
TAF COR SKRG 181630Z 1818/1918 10008KT 9999 SCT020 SCT200 
     BECMG 1823/1901 VRB03KT 
     PROB30 
     TEMPO 1904/1907 8000 VCSH SCT017TCU 
     TEMPO 1909/1913 6000 VCFG TX25/1818Z TN13/1911Z
       
SKMR 181900Z 00000KT 9999 BKN020 35/26 A2972
SKNV 181900Z 18013KT 140V200 9999 FEW040 SCT110 33/18 A2989
SKPS 181900Z 24004KT 9999 BKN025 24/10 A3011
SKPE 181900Z 28007KT 9999 SCT020 28/22 A2997 METAR
TAF SKPE 181630Z 1818/1918 33007KT 9999 SCT017 SCT090 
     TEMPO 1820/1822 8000 VCSH SCT017TCU 
     BECMG 1823/1901 VRB02KT FEW017 BKN080 
     TEMPO 1910/1913 8000 MIFG TX29/1819Z TN17/1911Z
       
SKPV 181900Z VRB14KT 9999 FEW017 BKN080 30/26 A2988
SKPC 181900Z 00000KT 9999 SCT017 SCT070 31/23 A2987
SKUI 181900Z 00000KT 9999 SCT020 BKN200 33/26 A2972
SKRH 181900Z 10020G30KT 9999 FEW020 35/22 A2976
SKSP 181900Z 07014KT 9999 FEW018 31/25 A2985
TAF COR SKSP 181630Z 1818/1918 07014KT 9999 FEW018 SCT090 TX33/1819Z TN27/1911Z
       
SKSM 181900Z 05006KT 9999 FEW020CB 38/24 A2977 RMK CB/E
SKVP 181900Z 07010KT 9999 FEW020 37/22 A2979
SKVV 181900Z 06004KT 9999 VCSH SCT017 SCT090 27/22 A2999 RMK VCSH/SW